Time;durP1;ratioP1;P1;durP2;ratioP2;P2;SDS_P1;SDS_P2;PMS_P1;PMS_P2;Temp;Humidity;BMP_temperature;BMP_pressure;BME280_temperature;BME280_humidity;BME280_pressure;Samples;Min_cycle;Max_cycle;Signal;HPM_P1;HPM_P2
2022/01/07 00:00:06;;;;;;;10.33;4.50;;;3.60;99.90;;;;;;5034410;28;20476;-52
2022/01/07 00:02:32;;;;;;;6.50;3.93;;;3.50;99.90;;;;;;5036709;28;20462;-54
2022/01/07 00:04:57;;;;;;;9.50;3.83;;;3.50;99.90;;;;;;5036990;28;20817;-50
2022/01/07 00:07:23;;;;;;;11.10;5.30;;;3.40;99.90;;;;;;5035702;28;20291;-50
2022/01/07 00:09:49;;;;;;;11.67;4.90;;;3.60;99.90;;;;;;5033667;28;20592;-49
2022/01/07 00:12:18;;;;;;;8.80;4.93;;;3.40;99.90;;;;;;5040938;28;20196;-55
2022/01/07 00:14:43;;;;;;;8.50;4.40;;;3.40;99.90;;;;;;5041901;28;20565;-53
2022/01/07 00:17:09;;;;;;;7.60;4.17;;;3.50;99.90;;;;;;5038751;28;20472;-53
2022/01/07 00:19:34;;;;;;;9.77;5.03;;;3.40;99.90;;;;;;5040369;28;20231;-52
2022/01/07 00:22:00;;;;;;;7.90;4.50;;;3.50;99.90;;;;;;5031034;28;20180;-50
2022/01/07 00:24:25;;;;;;;9.80;4.60;;;3.40;99.90;;;;;;5031660;28;20191;-56
2022/01/07 00:26:51;;;;;;;8.60;5.17;;;3.40;99.90;;;;;;5039722;28;20195;-53
2022/01/07 00:29:17;;;;;;;14.13;4.60;;;3.60;99.90;;;;;;5038091;28;20194;-52
2022/01/07 00:31:42;;;;;;;9.73;5.00;;;3.40;99.90;;;;;;5037669;28;20241;-53
2022/01/07 00:34:08;;;;;;;6.00;3.87;;;3.40;99.90;;;;;;5034099;28;20262;-51
2022/01/07 00:36:33;;;;;;;9.10;5.10;;;3.40;99.90;;;;;;5031892;28;20626;-52
2022/01/07 00:38:59;;;;;;;8.93;4.40;;;3.50;99.90;;;;;;5041777;28;20184;-53
2022/01/07 00:41:26;;;;;;;8.07;4.67;;;3.40;99.90;;;;;;5039843;28;20212;-54
2022/01/07 00:43:51;;;;;;;8.50;4.80;;;3.50;99.90;;;;;;5039650;28;20532;-51
2022/01/07 00:46:19;;;;;;;12.63;4.60;;;3.40;99.90;;;;;;5036770;28;20430;-54
2022/01/07 00:48:44;;;;;;;7.17;4.43;;;3.40;99.90;;;;;;5037406;28;20278;-55
2022/01/07 00:51:10;;;;;;;8.53;4.47;;;3.30;99.90;;;;;;5037553;28;21065;-56
2022/01/07 00:53:36;;;;;;;5.93;4.13;;;3.20;99.90;;;;;;5034842;28;20286;-53
2022/01/07 00:56:01;;;;;;;14.37;4.53;;;3.40;99.90;;;;;;5037590;28;20660;-53
2022/01/07 00:58:27;;;;;;;14.07;4.67;;;3.60;99.90;;;;;;5032087;28;20212;-52
2022/01/07 01:00:53;;;;;;;6.43;3.93;;;3.50;99.90;;;;;;5036718;28;20645;-52
2022/01/07 01:03:18;;;;;;;18.67;5.30;;;3.30;99.90;;;;;;5037502;28;20180;-53
2022/01/07 01:05:45;;;;;;;10.53;6.00;;;3.20;99.90;;;;;;5036748;28;20194;-54
2022/01/07 01:08:11;;;;;;;6.63;4.40;;;3.20;99.90;;;;;;5043244;28;20191;-53
2022/01/07 01:10:37;;;;;;;6.80;4.23;;;3.10;99.90;;;;;;5032485;28;20481;-53
2022/01/07 01:13:03;;;;;;;10.20;5.03;;;3.00;99.90;;;;;;5037122;28;20206;-54
2022/01/07 01:15:28;;;;;;;7.50;4.40;;;3.20;99.90;;;;;;5036743;28;20199;-53
2022/01/07 01:17:56;;;;;;;4.87;4.00;;;3.20;99.90;;;;;;5039755;28;20517;-50
2022/01/07 01:20:23;;;;;;;9.90;5.00;;;3.40;99.90;;;;;;5038722;28;20199;-53
2022/01/07 01:22:49;;;;;;;10.20;4.87;;;3.30;99.90;;;;;;5037624;28;20438;-51
2022/01/07 01:25:15;;;;;;;9.70;4.43;;;3.40;99.90;;;;;;5038755;28;20443;-53
2022/01/07 01:27:41;;;;;;;6.70;4.43;;;3.50;99.90;;;;;;5043182;28;20453;-52
2022/01/07 01:30:10;;;;;;;8.80;4.40;;;3.20;99.90;;;;;;5044684;28;20478;-50
2022/01/07 01:32:36;;;;;;;9.27;3.83;;;2.90;99.90;;;;;;5039039;28;20604;-53
2022/01/07 01:35:04;;;;;;;8.10;4.27;;;3.10;99.90;;;;;;5039452;28;20442;-54
2022/01/07 01:37:31;;;;;;;9.40;4.47;;;3.10;99.90;;;;;;5045078;28;20970;-50
2022/01/07 01:39:57;;;;;;;6.57;5.77;;;3.20;99.90;;;;;;5036419;28;20461;-54
2022/01/07 01:42:23;;;;;;;11.80;5.37;;;3.40;99.90;;;;;;5038484;28;20449;-50
2022/01/07 01:44:49;;;;;;;7.00;3.97;;;3.10;99.90;;;;;;5042965;28;20491;-52
2022/01/07 01:47:15;;;;;;;9.13;4.63;;;3.20;99.90;;;;;;5040253;28;20456;-54
2022/01/07 01:49:40;;;;;;;9.90;5.00;;;3.40;99.90;;;;;;5037689;28;20248;-53
2022/01/07 01:52:07;;;;;;;8.23;5.27;;;3.70;99.90;;;;;;5040901;28;20193;-52
2022/01/07 01:54:32;;;;;;;18.87;5.97;;;3.40;99.90;;;;;;5041270;28;20241;-54
2022/01/07 01:56:58;;;;;;;6.90;4.83;;;3.10;99.90;;;;;;5041798;28;20903;-54
2022/01/07 01:59:26;;;;;;;16.33;5.50;;;2.90;99.90;;;;;;5038848;28;20729;-54
2022/01/07 02:01:52;;;;;;;12.47;4.57;;;3.00;99.90;;;;;;5038902;28;20253;-54
2022/01/07 02:04:17;;;;;;;12.03;5.67;;;3.00;99.90;;;;;;5035664;28;20540;-52
2022/01/07 02:06:43;;;;;;;8.77;5.50;;;3.00;99.90;;;;;;5039620;28;20448;-54
2022/01/07 02:09:09;;;;;;;10.13;4.47;;;3.00;99.90;;;;;;5040352;28;20184;-51
2022/01/07 02:11:35;;;;;;;11.37;5.27;;;3.30;99.90;;;;;;5040042;28;20441;-53
2022/01/07 02:14:00;;;;;;;16.00;5.80;;;3.10;99.90;;;;;;5043135;28;20192;-55
2022/01/07 02:16:27;;;;;;;10.90;5.90;;;3.10;99.90;;;;;;5038536;28;20183;-56
2022/01/07 02:18:53;;;;;;;10.40;5.23;;;3.10;99.90;;;;;;5043790;28;20204;-54
2022/01/07 02:21:20;;;;;;;19.07;9.37;;;3.10;99.90;;;;;;5039445;28;20561;-52
2022/01/07 02:23:45;;;;;;;8.60;5.67;;;3.10;99.90;;;;;;5042521;28;20435;-52
2022/01/07 02:26:12;;;;;;;11.43;5.13;;;3.10;99.90;;;;;;5040963;28;20843;-47
2022/01/07 02:28:39;;;;;;;16.23;5.77;;;3.20;99.90;;;;;;5041562;28;20176;-49
2022/01/07 02:31:05;;;;;;;16.80;5.30;;;2.90;99.90;;;;;;5038265;28;21018;-49
2022/01/07 02:33:31;;;;;;;9.57;5.37;;;3.10;99.90;;;;;;5043258;28;20476;-53
2022/01/07 02:35:56;;;;;;;8.97;5.10;;;3.20;99.90;;;;;;5038584;28;20446;-52
2022/01/07 02:38:23;;;;;;;9.60;4.40;;;3.20;99.90;;;;;;5040567;28;20215;-52
2022/01/07 02:40:49;;;;;;;5.90;4.60;;;3.00;99.90;;;;;;5039326;28;20203;-50
2022/01/07 02:43:14;;;;;;;10.53;4.70;;;3.00;99.90;;;;;;5041436;28;20815;-54
2022/01/07 02:45:40;;;;;;;10.50;4.50;;;2.80;99.90;;;;;;5039397;28;20716;-48
2022/01/07 02:48:06;;;;;;;8.67;4.50;;;2.80;99.90;;;;;;5041811;28;20203;-52
2022/01/07 02:50:35;;;;;;;7.80;4.30;;;3.00;99.90;;;;;;5041696;28;20675;-50
2022/01/07 02:53:07;;;;;;;7.37;5.17;;;3.10;99.90;;;;;;5039798;28;21135;-47
2022/01/07 02:55:34;;;;;;;8.97;4.53;;;3.20;99.90;;;;;;5038934;28;20442;-48
2022/01/07 02:58:00;;;;;;;6.60;4.77;;;2.90;99.90;;;;;;5039829;28;20469;-53
2022/01/07 03:00:27;;;;;;;13.57;5.20;;;2.90;99.90;;;;;;5040440;28;20466;-51
2022/01/07 03:02:54;;;;;;;7.80;3.87;;;2.80;99.90;;;;;;5045088;28;20932;-53
2022/01/07 03:05:20;;;;;;;9.23;4.90;;;2.80;99.90;;;;;;5037084;28;20426;-47
2022/01/07 03:07:49;;;;;;;12.33;5.20;;;2.70;99.90;;;;;;5040667;28;20448;-51
2022/01/07 03:10:21;;;;;;;7.37;5.07;;;2.70;99.90;;;;;;5039642;28;20365;-51
2022/01/07 03:12:47;;;;;;;8.17;4.80;;;2.70;99.90;;;;;;5042700;28;20449;-50
2022/01/07 03:15:14;;;;;;;10.17;5.33;;;2.60;99.90;;;;;;5037982;28;20775;-50
2022/01/07 03:17:40;;;;;;;8.80;5.67;;;2.70;99.90;;;;;;5039643;28;20210;-54
2022/01/07 03:20:14;;;;;;;8.10;4.63;;;2.60;99.90;;;;;;5041239;28;20497;-50
2022/01/07 03:22:40;;;;;;;11.57;5.23;;;2.50;99.90;;;;;;5036733;28;20447;-53
2022/01/07 03:25:07;;;;;;;10.60;5.23;;;2.60;99.90;;;;;;5039830;28;20433;-50
2022/01/07 03:27:33;;;;;;;12.93;4.70;;;2.80;99.90;;;;;;5035187;28;20791;-51
2022/01/07 03:29:58;;;;;;;5.77;4.80;;;2.70;99.90;;;;;;5042174;28;20472;-51
2022/01/07 03:32:24;;;;;;;12.47;5.17;;;2.60;99.90;;;;;;5038903;28;20457;-50
2022/01/07 03:34:53;;;;;;;10.30;5.30;;;2.80;99.90;;;;;;5036949;28;20192;-49
2022/01/07 03:37:19;;;;;;;6.00;4.90;;;2.90;99.90;;;;;;5042946;28;20207;-51
2022/01/07 03:39:45;;;;;;;7.17;5.27;;;2.90;99.90;;;;;;5038626;28;21039;-49
2022/01/07 03:42:10;;;;;;;7.93;4.63;;;2.90;99.90;;;;;;5041663;28;20262;-53
2022/01/07 03:44:36;;;;;;;9.47;5.10;;;2.80;99.90;;;;;;5039077;28;20187;-54
2022/01/07 03:47:03;;;;;;;9.80;4.10;;;2.60;99.90;;;;;;5043076;28;20708;-54
2022/01/07 03:49:28;;;;;;;7.60;4.53;;;2.50;99.90;;;;;;5036047;28;20214;-53
2022/01/07 03:51:54;;;;;;;12.70;4.47;;;2.60;99.90;;;;;;5040090;28;20442;-52
2022/01/07 03:54:19;;;;;;;14.67;5.33;;;2.80;99.90;;;;;;5036716;28;20560;-54
2022/01/07 03:56:45;;;;;;;7.20;4.13;;;2.80;99.90;;;;;;5036866;28;20180;-49
2022/01/07 03:59:11;;;;;;;6.50;4.60;;;2.80;99.90;;;;;;5039616;28;20180;-49
2022/01/07 04:01:36;;;;;;;14.70;4.90;;;2.80;99.90;;;;;;5041221;28;20203;-50
2022/01/07 04:04:02;;;;;;;6.90;4.57;;;2.80;99.90;;;;;;5039539;28;20202;-53
2022/01/07 04:06:28;;;;;;;9.23;4.40;;;2.90;99.90;;;;;;5039250;28;20211;-53
2022/01/07 04:08:53;;;;;;;13.20;4.77;;;2.70;99.90;;;;;;5037172;28;20900;-51
2022/01/07 04:11:19;;;;;;;6.43;4.40;;;2.70;99.90;;;;;;5039872;28;20196;-55
2022/01/07 04:13:45;;;;;;;16.43;4.80;;;2.70;99.90;;;;;;5038857;28;20596;-52
2022/01/07 04:16:11;;;;;;;12.37;5.67;;;2.60;99.90;;;;;;5040382;28;20726;-50
2022/01/07 04:18:37;;;;;;;9.40;4.57;;;2.60;99.90;;;;;;5036880;28;20305;-53
2022/01/07 04:21:03;;;;;;;8.83;4.93;;;2.60;99.90;;;;;;5041441;28;21506;-51
2022/01/07 04:23:29;;;;;;;9.53;4.40;;;2.60;99.90;;;;;;5041265;28;20326;-51
2022/01/07 04:25:55;;;;;;;7.60;4.43;;;2.70;99.90;;;;;;5035800;28;20528;-55
2022/01/07 04:28:21;;;;;;;8.97;5.10;;;2.60;99.90;;;;;;5037781;28;20572;-54
2022/01/07 04:30:46;;;;;;;11.70;4.40;;;2.70;99.90;;;;;;5041041;28;20219;-54
2022/01/07 04:33:20;;;;;;;9.40;5.37;;;2.80;99.90;;;;;;5041299;28;20678;-53
2022/01/07 04:35:46;;;;;;;7.23;4.77;;;2.80;99.90;;;;;;5037870;28;20426;-51
2022/01/07 04:38:12;;;;;;;9.30;4.93;;;2.90;99.90;;;;;;5036043;28;20972;-55
2022/01/07 04:40:38;;;;;;;6.90;5.00;;;2.80;99.90;;;;;;5039902;28;20349;-48
2022/01/07 04:43:04;;;;;;;9.50;5.07;;;2.80;99.90;;;;;;5041650;28;20215;-55
2022/01/07 04:45:31;;;;;;;13.90;5.53;;;2.80;99.90;;;;;;5036246;28;20480;-51
2022/01/07 04:47:56;;;;;;;7.30;4.80;;;2.70;99.90;;;;;;5041642;28;20474;-54
2022/01/07 04:50:23;;;;;;;9.63;6.37;;;2.70;99.90;;;;;;5037353;28;20528;-49
2022/01/07 04:52:49;;;;;;;12.67;6.13;;;2.70;99.90;;;;;;5041470;28;20562;-53
2022/01/07 04:55:24;;;;;;;9.30;5.80;;;2.60;99.90;;;;;;5037620;28;21460;-52
2022/01/07 04:57:50;;;;;;;13.20;6.50;;;2.70;99.90;;;;;;5038542;28;20465;-50
2022/01/07 05:00:18;;;;;;;15.70;7.73;;;2.70;99.90;;;;;;5043759;28;20503;-51
2022/01/07 05:02:43;;;;;;;11.27;5.90;;;2.80;99.90;;;;;;5041955;28;20445;-50
2022/01/07 05:05:09;;;;;;;12.70;6.77;;;2.90;99.90;;;;;;5039783;28;20488;-52
2022/01/07 05:07:36;;;;;;;9.23;5.50;;;2.90;99.90;;;;;;5043747;28;20252;-50
2022/01/07 05:10:06;;;;;;;8.63;6.17;;;2.80;99.90;;;;;;5041274;28;20468;-51
2022/01/07 05:12:32;;;;;;;9.43;6.50;;;2.80;99.90;;;;;;5044359;28;20545;-49
2022/01/07 05:14:58;;;;;;;9.27;6.23;;;2.70;99.90;;;;;;5040187;28;20573;-46
2022/01/07 05:17:24;;;;;;;12.20;6.60;;;2.70;99.90;;;;;;5045618;28;20212;-48
2022/01/07 05:19:49;;;;;;;9.37;5.83;;;2.70;99.90;;;;;;5042900;28;20302;-46
2022/01/07 05:22:15;;;;;;;12.33;6.00;;;2.70;99.90;;;;;;5041441;28;20233;-46
2022/01/07 05:24:40;;;;;;;13.47;6.23;;;2.80;99.90;;;;;;5043058;28;20221;-47
2022/01/07 05:27:06;;;;;;;10.33;6.87;;;2.90;99.90;;;;;;5043730;28;20598;-49
2022/01/07 05:29:35;;;;;;;12.17;6.03;;;2.90;99.90;;;;;;5038206;28;20221;-48
2022/01/07 05:32:06;;;;;;;11.57;7.17;;;2.90;99.90;;;;;;5043080;28;20192;-49
2022/01/07 05:34:32;;;;;;;8.90;6.27;;;2.90;99.90;;;;;;5037502;28;21785;-50
2022/01/07 05:36:58;;;;;;;11.33;6.97;;;2.80;99.90;;;;;;5045120;28;20905;-52
2022/01/07 05:39:24;;;;;;;8.77;5.77;;;2.90;99.90;;;;;;5040740;28;20434;-49
2022/01/07 05:41:50;;;;;;;12.13;7.30;;;2.90;99.90;;;;;;5042906;28;20192;-52
2022/01/07 05:44:16;;;;;;;12.33;6.70;;;2.90;99.90;;;;;;5043311;28;20490;-54
2022/01/07 05:46:42;;;;;;;11.23;6.37;;;3.00;99.90;;;;;;5040787;28;21184;-49
2022/01/07 05:49:08;;;;;;;10.10;7.50;;;3.00;99.90;;;;;;5044333;28;20551;-52
2022/01/07 05:51:33;;;;;;;19.57;8.30;;;3.00;99.90;;;;;;5042256;28;20199;-50
2022/01/07 05:53:59;;;;;;;10.83;6.93;;;3.10;99.90;;;;;;5040963;28;20184;-49
2022/01/07 05:56:26;;;;;;;7.93;6.13;;;3.00;99.90;;;;;;5040720;28;20184;-50
2022/01/07 05:58:52;;;;;;;10.43;6.50;;;3.10;99.90;;;;;;5039160;28;20203;-51
2022/01/07 06:01:18;;;;;;;9.20;6.87;;;2.90;99.90;;;;;;5039647;28;20971;-46
2022/01/07 06:03:43;;;;;;;11.63;6.17;;;3.00;99.90;;;;;;5039878;28;20438;-50
2022/01/07 06:06:09;;;;;;;13.90;6.83;;;3.00;99.90;;;;;;5037702;28;20181;-50
2022/01/07 06:08:35;;;;;;;11.47;5.70;;;3.10;99.90;;;;;;5040801;28;20283;-50
2022/01/07 06:11:01;;;;;;;11.10;6.97;;;3.10;99.90;;;;;;5043484;28;20211;-52
2022/01/07 06:13:26;;;;;;;10.90;7.20;;;3.10;99.90;;;;;;5043927;28;20842;-48
2022/01/07 06:15:52;;;;;;;12.10;6.60;;;3.10;99.90;;;;;;5039325;28;20264;-51
2022/01/07 06:18:17;;;;;;;11.10;6.73;;;3.00;99.90;;;;;;5046116;28;20207;-49
2022/01/07 06:20:43;;;;;;;9.70;5.67;;;3.00;99.90;;;;;;5040927;28;20211;-53
2022/01/07 06:23:09;;;;;;;10.00;6.40;;;3.00;99.90;;;;;;5038817;28;20184;-50
2022/01/07 06:25:35;;;;;;;7.40;6.20;;;3.00;99.90;;;;;;5041947;28;20431;-50
2022/01/07 06:28:00;;;;;;;9.23;6.07;;;3.00;99.90;;;;;;5042893;28;20200;-52
2022/01/07 06:30:26;;;;;;;11.50;6.50;;;3.10;99.90;;;;;;5038594;28;20215;-51
2022/01/07 06:32:52;;;;;;;8.27;4.93;;;3.10;99.90;;;;;;5036053;28;20245;-54
2022/01/07 06:35:18;;;;;;;7.40;5.50;;;3.20;99.90;;;;;;5037874;28;20186;-50
2022/01/07 06:37:44;;;;;;;8.80;5.80;;;3.20;99.90;;;;;;5039585;28;20999;-53
2022/01/07 06:40:10;;;;;;;8.07;5.20;;;3.20;99.90;;;;;;5037183;28;20563;-52
2022/01/07 06:42:36;;;;;;;7.20;5.40;;;3.20;99.90;;;;;;5054642;28;20172;-51
2022/01/07 06:45:04;;;;;;;10.53;4.87;;;3.20;99.90;;;;;;5041751;28;21299;-50
2022/01/07 06:47:30;;;;;;;12.63;5.17;;;3.10;99.90;;;;;;5044256;28;20183;-51
2022/01/07 06:49:55;;;;;;;6.50;4.70;;;3.20;99.90;;;;;;5038970;28;20457;-54
2022/01/07 06:52:21;;;;;;;8.53;5.73;;;3.20;99.90;;;;;;5040809;28;20203;-51
2022/01/07 06:54:46;;;;;;;7.33;5.50;;;3.30;99.90;;;;;;5041548;28;20656;-51
2022/01/07 06:57:12;;;;;;;7.00;4.43;;;3.30;99.90;;;;;;5040248;28;20208;-51
2022/01/07 06:59:38;;;;;;;8.13;5.37;;;3.30;99.90;;;;;;5041655;28;20204;-50
2022/01/07 07:02:03;;;;;;;7.90;4.60;;;3.30;99.90;;;;;;5035394;28;20296;-49
2022/01/07 07:04:29;;;;;;;8.57;4.27;;;3.30;99.90;;;;;;5040897;28;20632;-48
2022/01/07 07:06:55;;;;;;;4.57;3.77;;;3.40;99.90;;;;;;5036412;28;20195;-49
2022/01/07 07:09:21;;;;;;;13.93;8.57;;;3.30;99.90;;;;;;5038616;28;20246;-48
2022/01/07 07:11:47;;;;;;;6.47;4.90;;;3.40;99.90;;;;;;5038466;28;20434;-46
2022/01/07 07:14:13;;;;;;;10.30;4.73;;;3.40;99.90;;;;;;5037807;28;21240;-48
2022/01/07 07:16:39;;;;;;;12.97;4.60;;;3.40;99.90;;;;;;5036104;28;20195;-49
2022/01/07 07:19:05;;;;;;;4.77;4.20;;;3.40;99.90;;;;;;5043569;28;20438;-50
2022/01/07 07:21:31;;;;;;;9.53;4.10;;;3.40;99.90;;;;;;5036987;28;20477;-49
2022/01/07 07:23:56;;;;;;;7.43;4.10;;;3.40;99.90;;;;;;5038615;28;20191;-52
2022/01/07 07:26:22;;;;;;;8.03;4.70;;;3.40;99.90;;;;;;5037448;28;20199;-51
2022/01/07 07:28:47;;;;;;;6.40;4.60;;;3.40;99.90;;;;;;5051798;28;20249;-54
2022/01/07 07:31:16;;;;;;;9.07;4.03;;;3.40;99.90;;;;;;5036788;28;20249;-49
2022/01/07 07:36:30;;;;;;;12.40;3.60;;;3.50;99.90;;;;;;5036334;28;20492;-50
2022/01/07 07:38:57;;;;;;;6.90;5.20;;;3.50;99.90;;;;;;5036948;28;20856;-49
2022/01/07 07:41:23;;;;;;;9.87;4.20;;;3.50;99.90;;;;;;5037400;28;21419;-54
2022/01/07 07:43:52;;;;;;;6.63;4.03;;;3.50;99.90;;;;;;5036849;28;20616;-50
2022/01/07 07:46:19;;;;;;;7.23;4.20;;;3.60;99.90;;;;;;5037051;28;20438;-54
2022/01/07 07:48:46;;;;;;;7.40;3.37;;;3.50;99.90;;;;;;5035998;28;20584;-51
2022/01/07 07:51:14;;;;;;;5.63;4.07;;;3.60;99.90;;;;;;5040316;28;20928;-49
2022/01/07 07:53:41;;;;;;;5.43;4.07;;;3.60;99.90;;;;;;5041613;28;20449;-50
2022/01/07 07:56:08;;;;;;;4.43;3.83;;;3.60;99.90;;;;;;5034342;28;20438;-52
2022/01/07 07:58:34;;;;;;;6.83;4.93;;;3.60;99.90;;;;;;5034499;28;20470;-51
2022/01/07 08:01:01;;;;;;;4.90;3.47;;;3.60;99.90;;;;;;5036394;28;20456;-49
2022/01/07 08:03:26;;;;;;;5.53;3.37;;;3.60;99.90;;;;;;5038673;28;20359;-49
2022/01/07 08:05:52;;;;;;;4.00;3.13;;;3.60;99.90;;;;;;5037941;28;20461;-51
2022/01/07 08:08:18;;;;;;;4.93;3.93;;;3.60;99.90;;;;;;5034581;28;20754;-50
2022/01/07 08:10:48;;;;;;;9.23;4.40;;;3.60;99.90;;;;;;5033819;28;20393;-50
2022/01/07 08:15:59;;;;;;;4.97;3.83;;;3.70;99.90;;;;;;5035082;28;20458;-53
2022/01/07 08:18:25;;;;;;;6.43;4.30;;;3.70;99.90;;;;;;5035410;28;20762;-55
2022/01/07 08:20:51;;;;;;;7.90;4.10;;;3.60;99.90;;;;;;5039846;28;20473;-53
2022/01/07 08:23:18;;;;;;;9.27;4.03;;;3.70;99.90;;;;;;5034652;28;20447;-54
2022/01/07 08:25:44;;;;;;;7.33;3.87;;;3.80;99.90;;;;;;5040525;28;20440;-53
2022/01/07 08:28:12;;;;;;;11.73;3.47;;;3.70;99.90;;;;;;5040047;28;20793;-50
2022/01/07 08:30:59;;;;;;;6.03;3.67;;;3.80;99.90;;;;;;5041158;28;20553;-50
2022/01/07 08:36:09;;;;;;;6.80;3.97;;;3.80;99.90;;;;;;5038431;28;20457;-49
2022/01/07 08:38:34;;;;;;;4.10;3.30;;;3.80;99.90;;;;;;5040826;28;20466;-52
2022/01/07 08:41:00;;;;;;;8.03;3.80;;;3.80;99.90;;;;;;5038467;28;20476;-49
2022/01/07 08:43:25;;;;;;;4.53;4.03;;;3.80;99.90;;;;;;5034549;28;20348;-52
2022/01/07 08:45:51;;;;;;;6.73;3.50;;;3.80;99.90;;;;;;5038206;28;20251;-46
2022/01/07 08:48:17;;;;;;;6.47;3.97;;;3.90;99.90;;;;;;5036441;28;20190;-50
2022/01/07 08:50:44;;;;;;;6.63;3.50;;;3.90;99.90;;;;;;5036175;28;20214;-46
2022/01/07 08:53:10;;;;;;;4.30;3.07;;;3.90;99.90;;;;;;5038829;28;20198;-49
2022/01/07 08:55:35;;;;;;;3.93;2.90;;;3.90;99.90;;;;;;5036431;28;20453;-50
2022/01/07 08:58:01;;;;;;;6.00;4.10;;;3.90;99.90;;;;;;5036795;28;20956;-53
2022/01/07 09:00:27;;;;;;;10.97;3.37;;;3.90;99.90;;;;;;5035879;28;20740;-53
2022/01/07 09:02:52;;;;;;;5.83;3.30;;;3.90;99.90;;;;;;5040273;28;20261;-51
2022/01/07 09:05:18;;;;;;;7.30;3.60;;;4.00;99.90;;;;;;5036287;28;20196;-50
2022/01/07 09:07:43;;;;;;;8.37;3.50;;;4.00;99.90;;;;;;5039349;28;20319;-49
2022/01/07 09:10:09;;;;;;;3.67;2.97;;;4.00;99.90;;;;;;5039441;28;20294;-50
2022/01/07 09:12:35;;;;;;;6.80;3.40;;;4.00;99.90;;;;;;5039530;28;20253;-52
2022/01/07 09:15:00;;;;;;;5.00;3.33;;;4.00;99.90;;;;;;5041762;28;20240;-51
2022/01/07 09:17:29;;;;;;;6.10;3.73;;;4.00;99.90;;;;;;5037456;28;20207;-49
2022/01/07 09:19:54;;;;;;;7.10;4.00;;;4.00;99.90;;;;;;5036764;28;20647;-49
2022/01/07 09:22:20;;;;;;;4.97;3.53;;;4.00;99.90;;;;;;5041630;28;20533;-48
2022/01/07 09:24:45;;;;;;;4.20;3.40;;;4.10;99.90;;;;;;5039450;28;20219;-49
2022/01/07 09:27:11;;;;;;;6.17;3.33;;;4.10;99.90;;;;;;5037967;28;20176;-49
2022/01/07 09:29:37;;;;;;;5.27;3.77;;;4.10;99.90;;;;;;5037769;28;20474;-46
2022/01/07 09:32:03;;;;;;;3.93;2.70;;;4.10;99.90;;;;;;5039621;28;20222;-50
2022/01/07 09:34:28;;;;;;;9.23;4.43;;;4.10;99.90;;;;;;5039066;28;20221;-50
2022/01/07 09:36:54;;;;;;;5.07;3.83;;;4.00;99.90;;;;;;5040417;28;20519;-50
2022/01/07 09:39:20;;;;;;;6.60;3.77;;;4.00;99.90;;;;;;5041823;28;20762;-50
2022/01/07 09:41:46;;;;;;;5.57;3.10;;;4.10;99.90;;;;;;5035680;28;20271;-52
2022/01/07 09:44:12;;;;;;;8.20;4.80;;;4.00;99.90;;;;;;5038636;28;20278;-50
2022/01/07 09:46:40;;;;;;;5.40;3.77;;;3.80;99.90;;;;;;5039324;28;20426;-50
2022/01/07 09:49:05;;;;;;;5.30;3.67;;;3.70;99.90;;;;;;5037267;28;20927;-55
2022/01/07 09:51:31;;;;;;;6.70;3.77;;;3.60;99.90;;;;;;5038830;28;20438;-51
2022/01/07 09:54:00;;;;;;;5.60;4.23;;;3.60;99.90;;;;;;5045528;28;20816;-49
2022/01/07 09:56:25;;;;;;;4.60;4.00;;;3.50;99.90;;;;;;5041089;28;20237;-48
2022/01/07 09:58:51;;;;;;;7.93;4.77;;;3.40;99.90;;;;;;5039623;28;20469;-49
2022/01/07 10:01:16;;;;;;;8.70;5.37;;;3.30;99.90;;;;;;5038966;28;20207;-52
2022/01/07 10:03:44;;;;;;;10.40;4.00;;;3.30;99.90;;;;;;5040016;28;20795;-47
2022/01/07 10:06:24;;;;;;;6.30;4.67;;;3.20;99.90;;;;;;5037735;28;20192;-52
2022/01/07 10:09:03;;;;;;;8.57;5.80;;;3.30;99.90;;;;;;5039692;28;20566;-54
2022/01/07 10:11:29;;;;;;;7.53;4.57;;;3.20;99.90;;;;;;5034250;28;20524;-47
2022/01/07 10:14:17;;;;;;;7.70;4.97;;;3.10;99.90;;;;;;5039185;28;20499;-52
2022/01/07 10:16:54;;;;;;;5.97;4.40;;;3.20;99.90;;;;;;5040542;28;20495;-52
2022/01/07 10:19:37;;;;;;;10.00;5.40;;;3.20;99.90;;;;;;5037694;28;20468;-49
2022/01/07 10:22:06;;;;;;;7.93;5.37;;;3.20;99.90;;;;;;5037798;28;21053;-49
2022/01/07 10:24:50;;;;;;;5.77;3.90;;;3.30;99.90;;;;;;5041576;28;20437;-51
2022/01/07 10:27:16;;;;;;;8.70;4.60;;;3.30;99.90;;;;;;5041684;28;20949;-48
2022/01/07 10:29:43;;;;;;;12.43;5.50;;;3.30;99.90;;;;;;5042096;28;20607;-49
2022/01/07 10:32:29;;;;;;;10.83;5.60;;;3.20;99.90;;;;;;5038398;28;20499;-50
2022/01/07 10:35:18;;;;;;;8.17;4.50;;;3.20;99.90;;;;;;5039315;28;20527;-50
2022/01/07 10:37:48;;;;;;;10.40;4.87;;;3.20;99.90;;;;;;5043214;28;20978;-48
2022/01/07 10:40:28;;;;;;;9.73;4.80;;;3.10;99.90;;;;;;5036811;28;20545;-52
2022/01/07 10:43:21;;;;;;;8.43;4.50;;;3.10;99.90;;;;;;5045611;28;20444;-51
2022/01/07 10:46:14;;;;;;;6.87;4.00;;;3.20;99.90;;;;;;5036833;28;20453;-49
2022/01/07 10:48:40;;;;;;;10.90;4.40;;;3.20;99.90;;;;;;5038638;28;20525;-53
2022/01/07 10:51:08;;;;;;;5.07;4.17;;;3.20;99.90;;;;;;5041316;28;21077;-49
2022/01/07 10:53:34;;;;;;;5.70;4.03;;;3.30;99.90;;;;;;5046536;28;20188;-51
2022/01/07 10:56:10;;;;;;;8.73;4.60;;;3.30;99.90;;;;;;5041638;28;20449;-50
2022/01/07 10:58:58;;;;;;;5.90;4.40;;;3.40;99.90;;;;;;5042595;28;20470;-52
2022/01/07 11:01:33;;;;;;;9.70;6.60;;;3.40;99.90;;;;;;5045853;28;20537;-48
2022/01/07 11:04:01;;;;;;;27.60;10.80;;;3.50;99.90;;;;;;5057149;28;20512;-51
2022/01/07 11:06:28;;;;;;;5.63;4.87;;;3.60;99.90;;;;;;5040814;28;20495;-53
2022/01/07 11:08:55;;;;;;;6.50;5.07;;;3.60;99.90;;;;;;5045585;28;20805;-49
2022/01/07 11:11:22;;;;;;;8.47;5.53;;;3.60;99.90;;;;;;5045009;28;20461;-53
2022/01/07 11:13:48;;;;;;;9.73;5.83;;;3.70;99.90;;;;;;5045856;28;20434;-51
2022/01/07 11:16:15;;;;;;;7.60;4.27;;;3.70;99.90;;;;;;5042389;28;20430;-47
2022/01/07 11:18:42;;;;;;;6.40;5.63;;;3.70;99.90;;;;;;5045809;28;21044;-51
2022/01/07 11:21:10;;;;;;;5.23;4.27;;;3.70;99.90;;;;;;5044183;28;20458;-51
2022/01/07 11:23:37;;;;;;;6.40;4.90;;;3.80;99.90;;;;;;5043392;28;20863;-53
2022/01/07 11:26:09;;;;;;;5.00;3.50;;;3.90;99.90;;;;;;5044591;28;20458;-53
2022/01/07 11:28:36;;;;;;;7.40;4.30;;;3.90;99.90;;;;;;5042377;28;20529;-49
2022/01/07 11:31:10;;;;;;;6.80;3.70;;;3.90;99.90;;;;;;5042588;28;20866;-51
2022/01/07 11:33:36;;;;;;;8.60;4.70;;;3.90;99.90;;;;;;5044163;28;20470;-54
2022/01/07 11:36:01;;;;;;;5.30;3.77;;;3.80;99.90;;;;;;5039302;28;20476;-51
2022/01/07 11:38:38;;;;;;;7.33;4.50;;;3.80;99.90;;;;;;5045353;28;20204;-53
2022/01/07 11:41:06;;;;;;;7.67;4.70;;;3.80;99.90;;;;;;5041805;28;20203;-54
2022/01/07 11:43:34;;;;;;;6.30;4.57;;;3.80;99.90;;;;;;5043714;28;20442;-51
2022/01/07 11:46:38;;;;;;;6.20;4.37;;;3.80;99.90;;;;;;5044361;28;20442;-54
2022/01/07 11:49:05;;;;;;;11.60;4.83;;;3.80;99.90;;;;;;5041556;28;20450;-51
2022/01/07 11:51:41;;;;;;;7.03;4.83;;;3.90;99.90;;;;;;5044380;28;20701;-49
2022/01/07 11:54:09;;;;;;;7.40;3.93;;;3.90;99.90;;;;;;5040506;28;20879;-52
2022/01/07 11:56:37;;;;;;;12.07;4.47;;;4.00;99.90;;;;;;5043967;28;20426;-52
2022/01/07 11:59:15;;;;;;;7.47;4.57;;;4.00;99.90;;;;;;5037213;28;20553;-51
2022/01/07 12:01:40;;;;;;;6.40;4.20;;;4.10;99.90;;;;;;5040342;28;20453;-50
2022/01/07 12:04:19;;;;;;;17.90;5.50;;;4.10;99.90;;;;;;5042262;28;20446;-55
2022/01/07 12:06:46;;;;;;;7.27;4.30;;;4.20;99.90;;;;;;5040865;28;20176;-49
2022/01/07 12:09:25;;;;;;;8.73;5.57;;;4.10;99.90;;;;;;5041889;28;20453;-51
2022/01/07 12:11:58;;;;;;;6.03;4.70;;;4.10;99.90;;;;;;5043259;28;20434;-56
2022/01/07 12:14:29;;;;;;;6.03;4.63;;;4.10;99.90;;;;;;5041907;28;20433;-52
2022/01/07 12:16:59;;;;;;;5.53;3.73;;;4.10;99.90;;;;;;5040196;28;20453;-49
2022/01/07 12:19:28;;;;;;;7.20;4.30;;;4.00;99.90;;;;;;5039846;28;20519;-52
2022/01/07 12:21:58;;;;;;;8.70;4.87;;;4.00;99.90;;;;;;5040643;28;20862;-46
2022/01/07 12:24:26;;;;;;;5.00;4.13;;;4.10;99.90;;;;;;5038836;28;20879;-54
2022/01/07 12:27:07;;;;;;;7.73;4.57;;;4.00;99.90;;;;;;5037774;28;20966;-51
2022/01/07 12:29:35;;;;;;;6.90;3.67;;;4.00;99.90;;;;;;5039090;28;20472;-53
2022/01/07 12:32:04;;;;;;;9.00;5.07;;;3.90;99.90;;;;;;5039673;28;20434;-48
2022/01/07 12:34:33;;;;;;;9.10;4.07;;;4.00;99.90;;;;;;5040525;28;20469;-54
2022/01/07 12:37:05;;;;;;;5.57;3.73;;;4.00;99.90;;;;;;5040833;28;21020;-53
2022/01/07 12:39:42;;;;;;;5.63;3.27;;;4.00;99.90;;;;;;5040896;28;20456;-53
2022/01/07 12:42:10;;;;;;;7.10;3.10;;;4.00;99.90;;;;;;5041763;28;20920;-53
2022/01/07 12:44:41;;;;;;;6.17;3.33;;;4.10;99.90;;;;;;5039595;28;20500;-53
2022/01/07 12:47:08;;;;;;;8.00;3.50;;;4.10;99.90;;;;;;5038861;28;20808;-49
2022/01/07 12:49:41;;;;;;;4.77;3.70;;;4.10;99.90;;;;;;5037955;28;20484;-50
2022/01/07 12:52:30;;;;;;;7.97;4.73;;;4.20;99.90;;;;;;5040099;28;20612;-53
2022/01/07 12:55:02;;;;;;;5.70;3.23;;;4.20;99.90;;;;;;5041733;28;20449;-51
2022/01/07 12:57:46;;;;;;;4.80;3.50;;;4.10;99.90;;;;;;5040094;28;20561;-51
2022/01/07 13:00:26;;;;;;;6.43;4.93;;;4.00;99.90;;;;;;5040612;28;20471;-49
2022/01/07 13:02:57;;;;;;;6.47;3.93;;;4.10;99.90;;;;;;5043576;28;20505;-49
2022/01/07 13:05:22;;;;;;;4.80;4.03;;;4.10;99.90;;;;;;5038066;28;20541;-52